IVAO ES Tour IFR-A 2013 Etapa 19

IVAO ES Tour IFR-A 2013 Etapa 19

Sevilla ( LEZL ) – Tenerife Norte ( GCXO )

Datos generales del vuelo
 Fecha 08-12-2013  Avión  B737-800 winglets
 Ruta CLANA UN857 KORNO UA857 ABODA UN857 IBALU UA857 AMETA UN857 TOVRA UA857 VEDOD UN857 TERTO  Nivel de vuelo FL370
 Origen LEZL  Destino GCXO
 Velocidad M0.795  Distancia 817Nm
 Distancia real 750Nm ETE 01:50
 ETA 20:55Z  FOB 03:35
 Hora salida 18:45Z Hora llegada 20:55Z
 Pax 152 TOW 68534Kg
 MTOW  78471Kg Fuel 9396Kg
 Fuel utilizado 5729Kg ZFW 59138Kg
Peso carga 7123Kg Peso pasaje 10602Kg
V1 131Knots Vr 140Knots
 V2 149Knots  Vref 148Knots
 Velocidad vertical toma
639,23 ft/m HARD LANDING!  

 

Datos LEZL

Metar: LEZL 081800Z 00000KT CAVOK 12/04 Q1025 NOSIG
Pista Activa:  27
Salida: CLANA2G

Datos GCXO

Metar: GCXO 082000Z 13003KT 100V160 CAVOK 14/13 Q1021 NOSIG
Pista Activa: 12
Llegada:  TERTO2L
App:  ILS 12

 

 

Deja una respuesta